Terminal Aerodrome Forecast
Issued by NWS

Home | Current Version | Previous Version | Text Only | Print | Product List | Glossary On
Versions: 1 2 3 4 5 6 7 8 9 10 11 12 13 14 15 16 17 18 19 20 21 22 23 24 25 26 27 28 29 30 31 32 33 34 35 36
000
FTUS43 KGRB 222300
TAFRHI
TAF
KRHI 222320Z 2300/2324 22008KT P6SM SCT014 SCT100 BKN250
     FM230300 22012KT P6SM SCT014 BKN100 WS015/24035KT
      TEMPO 2303/2307 BKN014
     FM230700 23012KT P6SM OVC014 WS015/24035KT
     FM231200 24014G22KT P6SM SCT014 OVC060 PROB30 2314/2317 5SM
      -SNPL BR BKN014
     FM231700 24011KT 6SM -SN SCT009 OVC018
      TEMPO 2317/2320 3SM -SN BR BKN009
     FM232000 26008KT 5SM -FZDZSN BR OVC006=

USA.gov is the U.S. government's official web portal to all federal, state and local government web resources and services.